Time;durP1;ratioP1;P1;durP2;ratioP2;P2;SDS_P1;SDS_P2;PMS_P1;PMS_P2;Temp;Humidity;BMP_temperature;BMP_pressure;BME280_temperature;BME280_humidity;BME280_pressure;Samples;Min_cycle;Max_cycle;Signal;HPM_P1;HPM_P2
2021/04/12 00:00:02;;;;;;;0.70;0.30;;;3.20;80.30;;;;;;4872117;29;20071;-71
2021/04/12 00:02:57;;;;;;;0.80;0.40;;;3.20;80.30;;;;;;4871969;29;20095;-72
2021/04/12 00:05:51;;;;;;;0.80;0.30;;;3.20;80.50;;;;;;4886544;29;20462;-72
2021/04/12 00:08:29;;;;;;;1.57;0.20;;;3.20;80.50;;;;;;4897059;29;20374;-72
2021/04/12 00:11:10;;;;;;;1.17;0.33;;;3.10;81.10;;;;;;4896435;29;20055;-72
2021/04/12 00:13:45;;;;;;;0.40;0.30;;;3.10;80.70;;;;;;4878676;29;20147;-71
2021/04/12 00:16:37;;;;;;;1.10;0.30;;;3.10;80.80;;;;;;4895384;29;20047;-72
2021/04/12 00:19:38;;;;;;;0.95;0.20;;;3.10;81.00;;;;;;4891702;29;20077;-72
2021/04/12 00:22:24;;;;;;;1.70;0.30;;;3.00;81.00;;;;;;4879139;29;20400;-72
2021/04/12 00:25:16;;;;;;;1.10;0.20;;;3.00;81.10;;;;;;4864099;29;20049;-72
2021/04/12 00:27:55;;;;;;;0.50;0.20;;;3.00;81.20;;;;;;4891994;29;20048;-72
2021/04/12 00:30:43;;;;;;;0.67;0.20;;;2.90;81.20;;;;;;4878627;29;20480;-72
2021/04/12 00:33:21;;;;;;;0.70;0.30;;;2.90;81.20;;;;;;4895838;29;20516;-72
2021/04/12 00:36:01;;;;;;;0.60;0.27;;;2.80;81.30;;;;;;4871557;29;20418;-72
2021/04/12 00:38:36;;;;;;;0.70;0.20;;;2.80;81.50;;;;;;4895876;29;20100;-72
2021/04/12 00:41:47;;;;;;;1.60;0.30;;;2.80;81.60;;;;;;4895670;29;20044;-72
2021/04/12 00:44:25;;;;;;;1.20;0.30;;;2.80;81.70;;;;;;4851537;29;20136;-72
2021/04/12 00:47:35;;;;;;;1.00;0.20;;;2.70;81.80;;;;;;4890784;29;20888;-72
2021/04/12 00:50:24;;;;;;;1.40;0.33;;;2.70;81.90;;;;;;4861162;29;20091;-72
2021/04/12 00:53:19;;;;;;;0.70;0.30;;;2.60;81.90;;;;;;4847933;29;20052;-72
2021/04/12 00:56:00;;;;;;;0.90;0.27;;;2.60;81.90;;;;;;4892423;29;20079;-72
2021/04/12 00:58:49;;;;;;;2.83;0.40;;;2.60;82.10;;;;;;4880015;29;20049;-72
2021/04/12 01:01:47;;;;;;;1.03;0.50;;;2.50;82.00;;;;;;4878571;29;20053;-72
2021/04/12 01:04:56;;;;;;;0.70;0.23;;;2.50;82.10;;;;;;4875803;29;20100;-72
2021/04/12 01:07:33;;;;;;;0.60;0.40;;;2.50;82.80;;;;;;4896519;29;20048;-73
2021/04/12 01:10:23;;;;;;;0.87;0.40;;;2.40;82.20;;;;;;4887085;29;20054;-73
2021/04/12 01:13:43;;;;;;;0.80;0.20;;;2.40;82.30;;;;;;4870859;29;20045;-73
2021/04/12 01:16:10;;;;;;;2.80;0.30;;;2.40;82.30;;;;;;4808665;29;20480;-74
2021/04/12 01:19:27;;;;;;;1.67;0.40;;;2.30;82.30;;;;;;4884725;29;20053;-73
2021/04/12 01:22:19;;;;;;;1.80;0.33;;;2.30;82.40;;;;;;4833177;29;20429;-73
2021/04/12 01:25:23;;;;;;;0.97;0.40;;;2.30;82.50;;;;;;4861128;29;20045;-74
2021/04/12 01:28:41;;;;;;;1.10;0.30;;;2.30;82.60;;;;;;4860769;29;20101;-74
2021/04/12 01:31:17;;;;;;;1.43;0.40;;;2.30;82.60;;;;;;4849921;29;20052;-73
2021/04/12 01:34:08;;;;;;;0.77;0.30;;;2.20;82.60;;;;;;4877292;29;20100;-73
2021/04/12 01:37:09;;;;;;;1.10;0.47;;;2.30;82.80;;;;;;4876016;29;20044;-73
2021/04/12 01:40:05;;;;;;;1.40;0.40;;;2.30;82.70;;;;;;4841064;29;20060;-74
2021/04/12 01:42:37;;;;;;;0.90;0.50;;;2.20;82.70;;;;;;4871362;29;20064;-73
2021/04/12 01:45:32;;;;;;;1.40;0.30;;;2.20;82.80;;;;;;4872465;29;20041;-73
2021/04/12 01:48:20;;;;;;;1.07;0.50;;;2.30;82.90;;;;;;4869760;29;20053;-73
2021/04/12 01:51:02;;;;;;;1.23;0.50;;;2.20;82.80;;;;;;4868189;29;20045;-73
2021/04/12 01:54:01;;;;;;;1.07;0.40;;;2.20;82.90;;;;;;4868652;29;20077;-73
2021/04/12 01:56:45;;;;;;;1.00;0.40;;;2.20;82.90;;;;;;4870968;29;20049;-73
2021/04/12 01:59:49;;;;;;;0.93;0.50;;;2.20;82.90;;;;;;4874164;29;20045;-71
2021/04/12 02:02:34;;;;;;;1.15;0.40;;;2.20;82.90;;;;;;4876175;29;20056;-71
2021/04/12 02:05:23;;;;;;;0.90;0.33;;;2.20;82.90;;;;;;4861938;29;20434;-72
2021/04/12 02:08:06;;;;;;;0.67;0.20;;;2.20;82.90;;;;;;4869955;29;20042;-71
2021/04/12 02:11:05;;;;;;;2.03;0.37;;;2.20;82.90;;;;;;4862425;29;20037;-72
2021/04/12 02:14:04;;;;;;;1.03;0.40;;;2.20;82.90;;;;;;4858609;29;20067;-72
2021/04/12 02:16:37;;;;;;;0.93;0.40;;;2.20;82.90;;;;;;4873359;29;20045;-71
2021/04/12 02:19:03;;;;;;;;;;;2.20;83.00;;;;;;4871526;29;20049;-72
2021/04/12 02:21:45;;;;;;;0.87;0.30;;;2.20;83.00;;;;;;4877789;29;19924;-72
2021/04/12 02:24:41;;;;;;;0.73;0.30;;;2.20;83.10;;;;;;4871808;29;20060;-72
2021/04/12 02:27:32;;;;;;;2.80;0.30;;;2.10;83.00;;;;;;4869882;29;20057;-72
2021/04/12 02:30:14;;;;;;;3.23;0.40;;;2.10;83.10;;;;;;4894950;29;20056;-72
2021/04/12 02:32:53;;;;;;;1.97;0.40;;;2.10;83.10;;;;;;4882176;29;20060;-73
2021/04/12 02:35:29;;;;;;;1.40;0.43;;;2.10;83.20;;;;;;4881168;29;20384;-72
2021/04/12 02:38:14;;;;;;;1.97;0.60;;;2.10;83.30;;;;;;4874626;29;20045;-72
2021/04/12 02:41:08;;;;;;;2.13;0.43;;;2.10;83.40;;;;;;4880768;29;20123;-72
2021/04/12 02:43:55;;;;;;;1.30;0.40;;;2.10;83.50;;;;;;4880114;29;20045;-72
2021/04/12 02:46:37;;;;;;;1.73;0.60;;;2.10;83.50;;;;;;4872504;29;20044;-72
2021/04/12 02:49:18;;;;;;;1.23;0.40;;;2.10;83.60;;;;;;4879139;29;20051;-72
2021/04/12 02:51:59;;;;;;;1.80;0.40;;;2.10;83.60;;;;;;4881175;29;20100;-72
2021/04/12 02:54:39;;;;;;;2.03;0.67;;;2.10;83.70;;;;;;4886442;29;20108;-72
2021/04/12 02:57:37;;;;;;;1.33;0.40;;;2.10;83.70;;;;;;4879654;29;20100;-72
2021/04/12 03:00:32;;;;;;;1.70;0.40;;;2.10;83.80;;;;;;4872402;29;20124;-71
2021/04/12 03:03:04;;;;;;;2.07;0.80;;;2.10;83.80;;;;;;4868591;29;20108;-72
2021/04/12 03:05:57;;;;;;;2.63;0.70;;;2.00;83.90;;;;;;4880140;29;20071;-72
2021/04/12 03:08:48;;;;;;;1.80;0.80;;;2.10;83.90;;;;;;4870272;29;20049;-71
2021/04/12 03:12:09;;;;;;;1.27;0.50;;;2.00;83.90;;;;;;4891038;29;20041;-72
2021/04/12 03:15:07;;;;;;;1.80;0.70;;;2.00;84.00;;;;;;4892020;29;20041;-72
2021/04/12 03:18:01;;;;;;;1.33;0.50;;;2.00;84.00;;;;;;4898084;29;20052;-72
2021/04/12 03:20:42;;;;;;;1.70;0.53;;;1.90;84.00;;;;;;4882278;29;20442;-72
2021/04/12 03:23:44;;;;;;;1.17;0.40;;;1.90;84.20;;;;;;4897854;29;20155;-72
2021/04/12 03:26:32;;;;;;;1.57;0.50;;;2.00;84.30;;;;;;4893472;29;20048;-72
2021/04/12 03:29:22;;;;;;;0.93;0.50;;;1.90;84.30;;;;;;4897508;29;20048;-72
2021/04/12 03:32:07;;;;;;;1.75;0.60;;;2.00;84.30;;;;;;4896579;29;20421;-72
2021/04/12 03:34:39;;;;;;;0.98;0.50;;;2.00;84.30;;;;;;4892583;29;20430;-72
2021/04/12 03:37:18;;;;;;;2.30;0.52;;;2.00;84.30;;;;;;4883158;29;20059;-71
2021/04/12 03:39:59;;;;;;;2.30;0.63;;;2.00;84.40;;;;;;4882216;29;20052;-72
2021/04/12 03:42:51;;;;;;;1.63;0.70;;;2.00;84.50;;;;;;4886231;29;20037;-72
2021/04/12 03:45:43;;;;;;;2.67;0.82;;;2.00;84.50;;;;;;4889624;29;20147;-72
2021/04/12 03:48:27;;;;;;;2.23;1.00;;;2.00;84.60;;;;;;4897194;29;20048;-72
2021/04/12 03:51:20;;;;;;;1.70;0.67;;;2.00;84.70;;;;;;4880165;29;20071;-72
2021/04/12 03:54:24;;;;;;;2.38;0.73;;;2.00;84.70;;;;;;4853934;29;20061;-71
2021/04/12 03:57:05;;;;;;;2.53;0.67;;;2.00;84.60;;;;;;4896644;29;20037;-72
2021/04/12 03:59:32;;;;;;;2.63;0.70;;;2.10;84.70;;;;;;4874114;29;20041;-72
2021/04/12 04:02:35;;;;;;;1.50;0.80;;;2.10;84.60;;;;;;4888509;29;20049;-72
2021/04/12 04:05:28;;;;;;;1.97;1.00;;;2.10;84.60;;;;;;4884761;29;20100;-71
2021/04/12 04:08:08;;;;;;;1.83;0.60;;;2.10;84.60;;;;;;4861685;29;20073;-71
2021/04/12 04:10:53;;;;;;;1.47;0.60;;;2.10;84.70;;;;;;4876453;29;20160;-72
2021/04/12 04:13:28;;;;;;;1.60;0.63;;;2.10;84.80;;;;;;4878530;29;20508;-71
2021/04/12 04:16:27;;;;;;;2.30;0.60;;;2.00;84.80;;;;;;4864113;29;20323;-70
2021/04/12 04:19:06;;;;;;;1.37;0.60;;;2.00;85.60;;;;;;4887814;29;20505;-71
2021/04/12 04:21:59;;;;;;;1.90;0.50;;;2.00;85.10;;;;;;4896852;29;20083;-71
2021/04/12 04:25:01;;;;;;;2.70;0.55;;;2.00;85.30;;;;;;4896303;29;20059;-71
2021/04/12 04:27:37;;;;;;;1.07;0.30;;;2.00;85.40;;;;;;4871444;29;20390;-72
2021/04/12 04:30:33;;;;;;;1.20;0.40;;;2.00;85.50;;;;;;4890596;29;20092;-72
2021/04/12 04:33:13;;;;;;;1.13;0.50;;;2.00;85.40;;;;;;4868772;29;20053;-73
2021/04/12 04:35:54;;;;;;;0.80;0.40;;;2.00;85.40;;;;;;4877119;29;20049;-72
2021/04/12 04:38:55;;;;;;;2.07;0.43;;;2.10;85.30;;;;;;4860870;29;20417;-73
2021/04/12 04:41:53;;;;;;;2.20;0.70;;;2.10;85.20;;;;;;4878943;29;20466;-73
2021/04/12 04:45:14;;;;;;;1.43;0.70;;;2.00;85.30;;;;;;4878464;29;20040;-72
2021/04/12 04:48:19;;;;;;;1.23;0.50;;;2.00;85.20;;;;;;4828536;29;20045;-72
2021/04/12 04:51:12;;;;;;;1.87;0.63;;;2.10;85.30;;;;;;4887070;29;20067;-72
2021/04/12 04:54:04;;;;;;;1.87;0.70;;;2.10;85.40;;;;;;4875242;29;20218;-72
2021/04/12 04:57:09;;;;;;;1.83;0.60;;;2.10;85.40;;;;;;4895587;29;20048;-72
2021/04/12 05:00:04;;;;;;;1.83;0.80;;;2.10;85.50;;;;;;4873322;29;20044;-72
2021/04/12 05:03:02;;;;;;;2.57;1.10;;;2.10;85.50;;;;;;4840908;29;20040;-74
2021/04/12 05:05:44;;;;;;;1.87;0.77;;;2.10;85.60;;;;;;4892458;29;20040;-74
2021/04/12 05:08:52;;;;;;;2.43;0.80;;;2.10;85.60;;;;;;4875238;29;20051;-73
2021/04/12 05:11:55;;;;;;;2.47;0.67;;;2.10;85.60;;;;;;4886464;29;20060;-74
2021/04/12 05:14:57;;;;;;;1.65;0.70;;;2.10;85.60;;;;;;4874834;29;20101;-73
2021/04/12 05:18:01;;;;;;;1.97;0.70;;;2.10;85.60;;;;;;4873495;29;20128;-74
2021/04/12 05:20:53;;;;;;;1.63;0.70;;;2.20;85.60;;;;;;4828639;29;20054;-73
2021/04/12 05:23:58;;;;;;;1.10;0.53;;;2.20;85.60;;;;;;4884120;29;20127;-74
2021/04/12 05:26:42;;;;;;;1.10;0.60;;;2.20;85.60;;;;;;4894787;29;20037;-73
2021/04/12 05:29:25;;;;;;;3.00;0.70;;;2.30;85.70;;;;;;4868122;29;20053;-73
2021/04/12 05:32:46;;;;;;;1.55;0.88;;;2.30;85.70;;;;;;4887043;29;20044;-74
2021/04/12 05:35:51;;;;;;;3.30;0.70;;;2.40;85.60;;;;;;4796619;29;20057;-73
2021/04/12 05:38:30;;;;;;;4.50;1.10;;;2.40;85.60;;;;;;4826953;29;20060;-73
2021/04/12 05:41:22;;;;;;;1.83;1.00;;;2.40;85.70;;;;;;4873567;29;20045;-73
2021/04/12 05:44:18;;;;;;;1.47;0.83;;;2.50;85.60;;;;;;4895170;29;20049;-74
2021/04/12 05:46:47;;;;;;;1.97;0.77;;;2.50;85.50;;;;;;4865362;29;20053;-74
2021/04/12 05:49:52;;;;;;;1.93;0.93;;;2.60;85.40;;;;;;4895248;29;20037;-74
2021/04/12 05:52:46;;;;;;;1.90;0.90;;;2.70;85.30;;;;;;4875457;29;20101;-73
2021/04/12 05:56:03;;;;;;;1.87;0.90;;;2.70;85.20;;;;;;4889066;29;20128;-74
2021/04/12 05:58:32;;;;;;;1.93;1.00;;;2.80;85.10;;;;;;4807659;29;20111;-73
2021/04/12 06:01:07;;;;;;;2.43;1.00;;;2.80;85.10;;;;;;4802974;29;20062;-74
2021/04/12 06:03:52;;;;;;;1.93;0.77;;;2.90;85.10;;;;;;4853472;29;20493;-74
2021/04/12 06:06:51;;;;;;;2.70;0.70;;;3.00;85.10;;;;;;4869319;29;20493;-74
2021/04/12 06:09:24;;;;;;;3.03;0.83;;;3.10;85.50;;;;;;4873283;29;20036;-74
2021/04/12 06:12:00;;;;;;;2.53;0.70;;;3.20;84.80;;;;;;4863024;29;20051;-74
2021/04/12 06:14:44;;;;;;;2.20;1.10;;;3.30;84.90;;;;;;4882256;29;20047;-74
2021/04/12 06:17:45;;;;;;;2.07;0.80;;;3.30;84.70;;;;;;4883688;29;20087;-74
2021/04/12 06:20:44;;;;;;;2.67;1.10;;;3.40;84.60;;;;;;4864133;29;20140;-74
2021/04/12 06:23:36;;;;;;;3.93;1.40;;;3.50;84.60;;;;;;4879941;29;20067;-74
2021/04/12 06:26:24;;;;;;;2.63;0.60;;;3.60;84.50;;;;;;4890544;29;20053;-74
2021/04/12 06:28:53;;;;;;;2.57;1.10;;;3.70;84.40;;;;;;4875989;29;20109;-74
2021/04/12 06:31:57;;;;;;;2.93;0.97;;;3.80;84.40;;;;;;4893733;29;20400;-74
2021/04/12 06:35:04;;;;;;;1.47;0.87;;;3.90;84.20;;;;;;4892089;29;20045;-75
2021/04/12 06:38:05;;;;;;;1.83;0.60;;;4.00;84.00;;;;;;4893072;29;20127;-74
2021/04/12 06:40:51;;;;;;;1.50;0.70;;;4.20;84.00;;;;;;4885140;29;20056;-74
2021/04/12 06:43:45;;;;;;;2.20;0.90;;;4.40;84.40;;;;;;4878463;29;20036;-82
2021/04/12 06:46:49;;;;;;;2.07;0.73;;;4.50;83.60;;;;;;4877039;29;20041;-79
2021/04/12 06:49:38;;;;;;;2.87;1.10;;;4.70;83.30;;;;;;4875282;29;20527;-78
2021/04/12 06:52:30;;;;;;;3.20;1.00;;;4.70;83.00;;;;;;4883432;29;20486;-78
2021/04/12 06:55:23;;;;;;;1.40;0.70;;;4.70;83.10;;;;;;4899748;29;20051;-78
2021/04/12 06:58:19;;;;;;;1.27;0.70;;;4.70;83.10;;;;;;4856595;29;20045;-74
2021/04/12 07:01:23;;;;;;;2.43;0.97;;;4.60;83.20;;;;;;4881450;29;20100;-74
2021/04/12 07:04:23;;;;;;;1.57;0.60;;;4.70;83.10;;;;;;4869136;29;20049;-75
2021/04/12 07:06:53;;;;;;;2.13;0.87;;;4.70;83.00;;;;;;4892146;29;20351;-74
2021/04/12 07:09:22;;;;;;;2.03;0.63;;;4.70;82.90;;;;;;4895234;29;20044;-75
2021/04/12 07:11:52;;;;;;;1.27;0.60;;;4.80;82.90;;;;;;4881888;29;20049;-75
2021/04/12 07:14:41;;;;;;;1.97;0.67;;;4.90;82.80;;;;;;4865350;29;20100;-75
2021/04/12 07:17:26;;;;;;;1.43;0.50;;;5.00;82.80;;;;;;4879207;29;20091;-73
2021/04/12 07:20:15;;;;;;;1.30;0.50;;;5.10;82.70;;;;;;4896197;29;20095;-72
2021/04/12 07:23:03;;;;;;;1.30;0.60;;;5.20;82.50;;;;;;4875480;29;20044;-72
2021/04/12 07:26:17;;;;;;;1.70;0.60;;;5.30;82.40;;;;;;4870648;29;20055;-74
2021/04/12 07:29:14;;;;;;;1.63;0.60;;;5.40;82.10;;;;;;4852249;29;20413;-74
2021/04/12 07:32:08;;;;;;;1.30;0.60;;;5.40;82.00;;;;;;4883308;29;20049;-74
2021/04/12 07:35:11;;;;;;;1.40;0.47;;;5.50;81.80;;;;;;4893723;29;20129;-74
2021/04/12 07:38:16;;;;;;;2.58;0.45;;;5.50;81.60;;;;;;4857340;29;20058;-74
2021/04/12 07:40:48;;;;;;;2.70;0.60;;;5.60;81.50;;;;;;4867518;29;20517;-75
2021/04/12 07:43:23;;;;;;;2.00;0.60;;;5.60;81.30;;;;;;4881684;29;20045;-74
2021/04/12 07:46:25;;;;;;;1.50;0.50;;;5.70;81.50;;;;;;4883227;29;20045;-74
2021/04/12 07:49:16;;;;;;;1.40;0.40;;;5.80;81.40;;;;;;4893885;29;20792;-74
2021/04/12 07:52:10;;;;;;;0.90;0.43;;;5.90;81.20;;;;;;4889397;29;20056;-75
2021/04/12 07:54:45;;;;;;;1.23;0.40;;;6.00;80.90;;;;;;4867982;29;20508;-74
2021/04/12 07:57:15;;;;;;;1.63;0.50;;;6.10;80.80;;;;;;4862439;29;20048;-74
2021/04/12 08:00:00;;;;;;;1.90;0.60;;;6.20;80.50;;;;;;4881528;29;20048;-74
2021/04/12 08:03:00;;;;;;;2.03;0.60;;;6.40;80.40;;;;;;4897313;29;20044;-74
2021/04/12 08:05:55;;;;;;;2.13;0.50;;;6.70;79.80;;;;;;4904890;29;20047;-74
2021/04/12 08:08:21;;;;;;;2.00;0.50;;;6.80;79.20;;;;;;4888981;29;20112;-74
2021/04/12 08:11:25;;;;;;;3.17;0.90;;;7.00;78.90;;;;;;4887392;29;20092;-74
2021/04/12 08:14:23;;;;;;;2.03;0.70;;;7.10;78.20;;;;;;4874274;29;20128;-74
2021/04/12 08:17:29;;;;;;;2.53;0.57;;;7.10;78.10;;;;;;4874906;29;20048;-74
2021/04/12 08:19:58;;;;;;;1.80;0.50;;;7.10;78.10;;;;;;4887812;29;20056;-74
2021/04/12 08:22:47;;;;;;;2.03;0.50;;;7.10;77.80;;;;;;4850483;29;20124;-75
2021/04/12 08:25:23;;;;;;;2.43;0.80;;;7.20;77.90;;;;;;4869586;29;20052;-80
2021/04/12 08:28:17;;;;;;;2.97;0.63;;;7.30;77.10;;;;;;4860837;29;20056;-76
2021/04/12 08:31:02;;;;;;;2.50;0.60;;;7.30;77.10;;;;;;4853641;29;20055;-74
2021/04/12 08:34:14;;;;;;;3.60;0.60;;;7.40;76.70;;;;;;4879746;29;20048;-73
2021/04/12 08:37:04;;;;;;;2.13;0.50;;;7.50;75.40;;;;;;4838050;29;20131;-74
2021/04/12 08:39:49;;;;;;;1.80;0.50;;;7.60;75.90;;;;;;4879168;29;20105;-76
2021/04/12 08:42:25;;;;;;;4.73;0.90;;;7.90;74.80;;;;;;4851478;29;20049;-78
2021/04/12 08:45:35;;;;;;;1.85;0.30;;;7.90;74.30;;;;;;4872168;29;20092;-79
2021/04/12 08:48:28;;;;;;;0.90;0.40;;;8.00;74.40;;;;;;4839819;29;20058;-73
2021/04/12 08:51:35;;;;;;;1.10;0.30;;;8.30;74.80;;;;;;4850300;29;20056;-75
2021/04/12 08:54:29;;;;;;;1.63;0.30;;;8.40;73.50;;;;;;4827462;29;20135;-73
2021/04/12 08:57:26;;;;;;;1.83;0.40;;;8.20;73.00;;;;;;4878388;29;20045;-73
2021/04/12 09:00:27;;;;;;;1.97;0.37;;;8.00;72.50;;;;;;4857138;29;20080;-73
2021/04/12 09:03:14;;;;;;;0.90;0.40;;;7.70;72.20;;;;;;4874256;29;20051;-77
2021/04/12 09:05:50;;;;;;;2.78;0.60;;;7.60;72.30;;;;;;4862736;29;20114;-78
2021/04/12 09:08:50;;;;;;;4.10;0.73;;;7.40;71.10;;;;;;4858250;29;20390;-75
2021/04/12 09:11:51;;;;;;;1.40;0.50;;;7.50;71.60;;;;;;4872099;29;20041;-75
2021/04/12 09:14:50;;;;;;;0.73;0.30;;;7.60;70.90;;;;;;4858594;29;20068;-75
2021/04/12 09:17:24;;;;;;;1.43;0.40;;;7.70;70.70;;;;;;4850399;29;20080;-75
2021/04/12 09:20:23;;;;;;;1.90;0.40;;;7.70;69.90;;;;;;4862864;29;20139;-75
2021/04/12 09:23:02;;;;;;;2.73;0.50;;;7.80;69.60;;;;;;4880231;29;20085;-75
2021/04/12 09:25:59;;;;;;;0.90;0.40;;;7.90;69.10;;;;;;4893295;29;20067;-74
2021/04/12 09:28:29;;;;;;;1.63;0.50;;;8.00;68.70;;;;;;4887823;29;20159;-75
2021/04/12 09:31:20;;;;;;;1.77;0.43;;;8.10;68.80;;;;;;4871810;29;20053;-75
2021/04/12 09:34:22;;;;;;;1.10;0.40;;;8.30;68.50;;;;;;4886464;29;20036;-75
2021/04/12 09:37:37;;;;;;;2.22;0.40;;;8.40;68.60;;;;;;4863905;29;20052;-73
2021/04/12 09:41:00;;;;;;;1.17;0.40;;;8.50;68.60;;;;;;4899985;29;20508;-74
2021/04/12 09:43:48;;;;;;;2.42;0.63;;;8.60;68.40;;;;;;4786062;29;20077;-73
2021/04/12 09:46:43;;;;;;;1.05;0.40;;;8.70;68.20;;;;;;4865111;29;20052;-73
2021/04/12 09:49:28;;;;;;;1.23;0.60;;;8.90;68.10;;;;;;4896686;29;20041;-73
2021/04/12 09:52:15;;;;;;;1.27;0.60;;;8.90;67.50;;;;;;4875851;29;20056;-73
2021/04/12 09:55:12;;;;;;;1.98;0.60;;;8.80;67.50;;;;;;4835473;29;20077;-74
2021/04/12 09:58:03;;;;;;;1.70;0.60;;;8.80;67.70;;;;;;4882140;29;20041;-72
2021/04/12 10:00:43;;;;;;;2.15;0.80;;;8.60;67.60;;;;;;4874643;29;20069;-73
2021/04/12 10:04:08;;;;;;;1.60;0.80;;;8.50;67.90;;;;;;4882962;29;20111;-73
2021/04/12 10:06:49;;;;;;;2.05;0.70;;;8.60;68.00;;;;;;4831479;29;20073;-73
2021/04/12 10:09:40;;;;;;;3.37;1.00;;;8.60;68.10;;;;;;4898512;29;20044;-72
2021/04/12 10:12:17;;;;;;;3.67;1.00;;;8.60;68.00;;;;;;4888789;29;20123;-73
2021/04/12 10:15:19;;;;;;;3.20;1.20;;;8.50;67.50;;;;;;4872953;29;20048;-73
2021/04/12 10:17:57;;;;;;;5.57;1.23;;;8.60;67.50;;;;;;4898467;29;20104;-73
2021/04/12 10:20:28;;;;;;;3.10;1.60;;;8.80;67.30;;;;;;4881457;29;20412;-74
2021/04/12 10:23:03;;;;;;;3.80;1.10;;;8.70;67.20;;;;;;4891416;29;20112;-73
2021/04/12 10:25:42;;;;;;;2.50;1.33;;;8.70;67.40;;;;;;4891106;29;20139;-73
2021/04/12 10:28:28;;;;;;;2.78;1.00;;;8.90;67.00;;;;;;4893933;29;20131;-73
2021/04/12 10:31:21;;;;;;;1.97;1.00;;;8.90;67.00;;;;;;4881775;29;20104;-73
2021/04/12 10:34:10;;;;;;;3.03;1.00;;;8.80;66.50;;;;;;4891034;29;20466;-72
2021/04/12 10:37:21;;;;;;;1.97;0.83;;;8.90;66.20;;;;;;4881651;29;20044;-72
2021/04/12 10:40:08;;;;;;;1.53;0.90;;;8.90;66.10;;;;;;4897404;29;20096;-72
2021/04/12 10:43:05;;;;;;;0.90;0.40;;;8.30;65.40;;;;;;4895558;29;20040;-73
2021/04/12 10:45:44;;;;;;;0.70;0.37;;;8.00;66.60;;;;;;4894627;29;20176;-72
2021/04/12 10:48:28;;;;;;;1.17;0.30;;;8.30;66.50;;;;;;4890849;29;20501;-71
2021/04/12 10:51:24;;;;;;;0.95;0.57;;;8.60;65.30;;;;;;4871229;29;20501;-71
2021/04/12 10:54:18;;;;;;;1.77;0.40;;;9.00;64.60;;;;;;4894457;29;20104;-72
2021/04/12 10:57:26;;;;;;;0.90;0.20;;;9.50;63.80;;;;;;4866312;29;20144;-72
2021/04/12 11:00:11;;;;;;;0.97;0.20;;;9.20;63.80;;;;;;4884805;29;20029;-72
2021/04/12 11:03:09;;;;;;;0.50;0.20;;;9.50;63.80;;;;;;4887490;29;20046;-74
2021/04/12 11:05:37;;;;;;;1.77;0.30;;;9.90;62.90;;;;;;4874880;29;20053;-72
2021/04/12 11:08:24;;;;;;;1.77;0.30;;;9.70;62.80;;;;;;4896461;29;20500;-72
2021/04/12 11:10:54;;;;;;;1.17;0.20;;;9.10;63.60;;;;;;4872199;29;20044;-71
2021/04/12 11:13:42;;;;;;;1.10;0.30;;;8.70;65.10;;;;;;4878890;29;20053;-72
2021/04/12 11:16:45;;;;;;;0.63;0.30;;;8.40;65.40;;;;;;4897843;29;20044;-72
2021/04/12 11:19:27;;;;;;;0.60;0.30;;;8.30;66.30;;;;;;4892348;29;20540;-71
2021/04/12 11:22:32;;;;;;;0.50;0.20;;;8.40;66.90;;;;;;4872894;29;20060;-73
2021/04/12 11:25:11;;;;;;;0.87;0.30;;;8.60;66.50;;;;;;4870587;29;20398;-72
2021/04/12 11:27:51;;;;;;;0.40;0.30;;;8.90;66.20;;;;;;4890619;29;20501;-72
2021/04/12 11:30:33;;;;;;;1.20;0.60;;;9.70;64.20;;;;;;4878565;29;20041;-72
2021/04/12 11:33:26;;;;;;;1.27;0.40;;;10.60;62.50;;;;;;4873911;29;20052;-72
2021/04/12 11:36:23;;;;;;;0.93;0.40;;;11.30;60.10;;;;;;4867407;29;20033;-72
2021/04/12 11:39:05;;;;;;;0.32;0.28;;;11.20;59.60;;;;;;4894507;29;20498;-72
2021/04/12 11:41:47;;;;;;;1.13;0.30;;;10.40;59.90;;;;;;4889737;29;20056;-71
2021/04/12 11:44:22;;;;;;;0.68;0.20;;;10.20;61.60;;;;;;4881741;29;20060;-72
2021/04/12 11:47:36;;;;;;;1.20;0.25;;;10.00;62.30;;;;;;4894843;29;20519;-72
2021/04/12 11:50:21;;;;;;;1.55;0.47;;;9.90;62.50;;;;;;4890210;29;20063;-71
2021/04/12 11:53:06;;;;;;;0.98;0.50;;;10.80;61.60;;;;;;4895132;29;20045;-72
2021/04/12 11:55:51;;;;;;;1.77;0.50;;;11.30;60.40;;;;;;4874927;29;20118;-72
2021/04/12 11:58:19;;;;;;;0.50;0.30;;;11.30;60.00;;;;;;4892228;29;20450;-72
2021/04/12 12:00:57;;;;;;;2.53;0.40;;;12.20;58.90;;;;;;4891804;29;20043;-72
2021/04/12 12:03:41;;;;;;;1.70;0.65;;;12.80;57.60;;;;;;4893993;29;20044;-71
2021/04/12 12:06:34;;;;;;;1.10;0.40;;;13.30;56.60;;;;;;4890703;29;20504;-72
2021/04/12 12:09:13;;;;;;;1.05;0.60;;;13.30;56.10;;;;;;4872783;29;20073;-77
2021/04/12 12:11:53;;;;;;;1.98;0.43;;;12.80;55.80;;;;;;4891486;29;20405;-73
2021/04/12 12:14:49;;;;;;;1.77;0.50;;;11.80;57.90;;;;;;4874655;29;20047;-71
2021/04/12 12:17:19;;;;;;;1.60;0.40;;;11.00;58.30;;;;;;4884128;29;20127;-72
2021/04/12 12:19:51;;;;;;;1.63;0.40;;;10.40;59.50;;;;;;4893793;29;20041;-74
2021/04/12 12:22:51;;;;;;;1.80;0.55;;;10.00;58.40;;;;;;4878892;29;20047;-74
2021/04/12 12:25:38;;;;;;;1.45;0.50;;;9.50;58.90;;;;;;4874040;29;20044;-73
2021/04/12 12:28:32;;;;;;;1.55;0.35;;;9.20;60.00;;;;;;4883973;29;20159;-71
2021/04/12 12:30:58;;;;;;;;;;;8.90;60.20;;;;;;4877721;29;20055;-72
2021/04/12 12:33:43;;;;;;;1.08;0.40;;;8.80;60.20;;;;;;4876589;29;19931;-71
2021/04/12 12:36:31;;;;;;;1.27;0.40;;;8.70;59.80;;;;;;4866647;29;20104;-71
2021/04/12 12:39:16;;;;;;;1.60;0.40;;;8.80;60.60;;;;;;4885228;29;20053;-71
2021/04/12 12:41:46;;;;;;;1.05;0.40;;;9.00;60.60;;;;;;4887658;29;20101;-72
2021/04/12 12:44:18;;;;;;;1.35;0.40;;;8.90;60.70;;;;;;4857934;29;20432;-71
2021/04/12 12:46:45;;;;;;;1.17;0.35;;;8.90;61.30;;;;;;4888975;29;20485;-72
2021/04/12 12:49:28;;;;;;;2.08;0.80;;;8.70;61.90;;;;;;4884807;29;20051;-72
2021/04/12 12:52:05;;;;;;;1.00;0.32;;;8.40;63.20;;;;;;4872256;29;20049;-72
2021/04/12 12:54:43;;;;;;;2.00;0.60;;;8.10;64.40;;;;;;4870279;29;20446;-72
2021/04/12 12:57:33;;;;;;;0.80;0.40;;;7.60;65.90;;;;;;4890111;29;20044;-72
2021/04/12 13:00:10;;;;;;;1.10;0.40;;;7.10;67.50;;;;;;4887646;29;20092;-71
2021/04/12 13:02:39;;;;;;;0.57;0.30;;;6.60;68.90;;;;;;4866232;29;20421;-75
2021/04/12 13:05:12;;;;;;;0.73;0.33;;;6.50;69.70;;;;;;4871179;29;20049;-72
2021/04/12 13:07:41;;;;;;;1.40;0.30;;;6.40;70.30;;;;;;4887057;29;20059;-72
2021/04/12 13:10:34;;;;;;;0.80;0.30;;;6.30;70.90;;;;;;4859255;29;20128;-73
2021/04/12 13:13:01;;;;;;;1.38;0.30;;;6.10;71.30;;;;;;4883826;29;20116;-73
2021/04/12 13:15:34;;;;;;;1.47;0.30;;;6.00;71.70;;;;;;4893578;29;20366;-73
2021/04/12 13:18:10;;;;;;;1.03;0.43;;;6.00;71.90;;;;;;4875581;29;20135;-73
2021/04/12 13:20:46;;;;;;;0.60;0.40;;;6.10;72.30;;;;;;4894197;29;20056;-73
2021/04/12 13:23:24;;;;;;;1.40;0.40;;;6.30;72.20;;;;;;4878461;29;20365;-72
2021/04/12 13:25:54;;;;;;;1.43;0.50;;;6.50;72.00;;;;;;4897349;29;20044;-74
2021/04/12 13:28:32;;;;;;;3.07;0.60;;;6.80;71.60;;;;;;4861918;29;20085;-73
2021/04/12 13:31:01;;;;;;;0.80;0.40;;;7.00;71.20;;;;;;4879382;29;20041;-73
2021/04/12 13:33:36;;;;;;;1.77;0.40;;;7.20;70.60;;;;;;4897436;29;20040;-74
2021/04/12 13:36:10;;;;;;;1.55;0.40;;;7.30;70.40;;;;;;4880013;29;20048;-71
2021/04/12 13:38:41;;;;;;;1.03;0.30;;;7.50;70.30;;;;;;4875165;29;20048;-71
2021/04/12 13:41:33;;;;;;;1.50;0.43;;;7.60;70.10;;;;;;4896234;29;20048;-71
2021/04/12 13:44:11;;;;;;;0.98;0.40;;;7.60;69.90;;;;;;4885182;29;20385;-72
2021/04/12 13:47:08;;;;;;;0.90;0.40;;;7.60;69.70;;;;;;4893027;29;20040;-75
2021/04/12 13:49:43;;;;;;;1.30;0.20;;;7.60;69.70;;;;;;4893819;29;20040;-71
2021/04/12 13:52:23;;;;;;;1.55;0.35;;;7.70;69.40;;;;;;4895841;29;20096;-72
2021/04/12 13:55:01;;;;;;;0.70;0.20;;;7.70;69.30;;;;;;4876191;29;20044;-72
2021/04/12 13:57:41;;;;;;;0.65;0.22;;;7.80;69.10;;;;;;4877479;29;20057;-71
2021/04/12 14:00:14;;;;;;;0.90;0.20;;;7.80;68.80;;;;;;4879392;29;20048;-72
2021/04/12 14:02:53;;;;;;;1.70;0.40;;;7.70;68.40;;;;;;4898681;29;20124;-72
2021/04/12 14:05:26;;;;;;;2.17;0.50;;;7.70;68.30;;;;;;4895662;29;20072;-72
2021/04/12 14:08:02;;;;;;;1.20;0.30;;;7.50;68.10;;;;;;4897800;29;20044;-72
2021/04/12 14:10:37;;;;;;;1.27;0.73;;;7.50;68.40;;;;;;4895669;29;20580;-72
2021/04/12 14:13:22;;;;;;;1.50;0.43;;;7.40;68.60;;;;;;4890277;29;20044;-73
2021/04/12 14:15:56;;;;;;;0.95;0.38;;;7.40;68.70;;;;;;4868443;29;20045;-74
2021/04/12 14:18:30;;;;;;;1.77;0.40;;;7.40;68.50;;;;;;4874541;29;20045;-73
2021/04/12 14:21:23;;;;;;;1.67;0.40;;;7.40;68.60;;;;;;4895868;29;20131;-73
2021/04/12 14:23:55;;;;;;;2.67;0.38;;;7.50;68.10;;;;;;4889902;29;20041;-72
2021/04/12 14:26:33;;;;;;;0.70;0.20;;;7.50;68.30;;;;;;4889261;29;20059;-73
2021/04/12 14:29:06;;;;;;;1.75;0.30;;;7.70;68.40;;;;;;4883396;29;20080;-73
2021/04/12 14:31:38;;;;;;;2.45;0.35;;;7.80;67.90;;;;;;4889722;29;20037;-71
2021/04/12 14:34:25;;;;;;;1.00;0.30;;;7.90;68.10;;;;;;4878750;29;20044;-72
2021/04/12 14:36:52;;;;;;;0.60;0.20;;;8.10;68.10;;;;;;4895209;29;20037;-72
2021/04/12 14:39:27;;;;;;;2.23;0.60;;;8.20;67.30;;;;;;4892753;29;20032;-72
2021/04/12 14:42:01;;;;;;;1.00;0.40;;;8.50;67.50;;;;;;4889393;29;20045;-82
2021/04/12 14:44:35;;;;;;;1.85;0.70;;;8.80;67.10;;;;;;4866632;29;20044;-77